sensor_id;sensor_type;location;lat;lon;timestamp;P1;durP1;ratioP1;P2;durP2;ratioP2
62947;SDS011;51940;52.126;-0.994;2023-02-20T00:02:23;7.40;;;5.20;;
62947;SDS011;51940;52.126;-0.994;2023-02-20T00:04:49;8.60;;;5.40;;
62947;SDS011;51940;52.126;-0.994;2023-02-20T00:07:14;8.20;;;5.00;;
62947;SDS011;51940;52.126;-0.994;2023-02-20T00:09:39;7.40;;;4.90;;
62947;SDS011;51940;52.126;-0.994;2023-02-20T00:12:05;6.00;;;5.40;;
62947;SDS011;51940;52.126;-0.994;2023-02-20T00:14:31;7.50;;;5.20;;
62947;SDS011;51940;52.126;-0.994;2023-02-20T00:16:56;8.80;;;5.00;;
62947;SDS011;51940;52.126;-0.994;2023-02-20T00:19:22;8.40;;;4.80;;
62947;SDS011;51940;52.126;-0.994;2023-02-20T00:21:47;6.60;;;4.60;;
62947;SDS011;51940;52.126;-0.994;2023-02-20T00:24:14;7.60;;;5.20;;
62947;SDS011;51940;52.126;-0.994;2023-02-20T00:26:44;5.20;;;4.70;;
62947;SDS011;51940;52.126;-0.994;2023-02-20T00:29:13;8.90;;;5.50;;
62947;SDS011;51940;52.126;-0.994;2023-02-20T00:31:39;6.40;;;4.60;;
62947;SDS011;51940;52.126;-0.994;2023-02-20T00:34:05;5.20;;;4.70;;
62947;SDS011;51940;52.126;-0.994;2023-02-20T00:36:30;7.40;;;4.80;;
62947;SDS011;51940;52.126;-0.994;2023-02-20T00:38:56;7.40;;;4.70;;
62947;SDS011;51940;52.126;-0.994;2023-02-20T00:41:21;7.20;;;4.80;;
62947;SDS011;51940;52.126;-0.994;2023-02-20T00:43:46;6.50;;;4.80;;
62947;SDS011;51940;52.126;-0.994;2023-02-20T00:46:12;8.30;;;5.10;;
62947;SDS011;51940;52.126;-0.994;2023-02-20T00:48:38;8.60;;;5.00;;
62947;SDS011;51940;52.126;-0.994;2023-02-20T00:51:04;7.80;;;5.10;;
62947;SDS011;51940;52.126;-0.994;2023-02-20T00:53:29;7.60;;;5.70;;
62947;SDS011;51940;52.126;-0.994;2023-02-20T00:55:55;7.40;;;5.80;;
62947;SDS011;51940;52.126;-0.994;2023-02-20T00:58:20;8.00;;;5.10;;
62947;SDS011;51940;52.126;-0.994;2023-02-20T01:00:45;9.00;;;6.20;;
62947;SDS011;51940;52.126;-0.994;2023-02-20T01:03:11;8.70;;;6.20;;
62947;SDS011;51940;52.126;-0.994;2023-02-20T01:05:37;8.20;;;6.90;;
62947;SDS011;51940;52.126;-0.994;2023-02-20T01:08:02;8.20;;;6.20;;
62947;SDS011;51940;52.126;-0.994;2023-02-20T01:10:28;9.30;;;7.20;;
62947;SDS011;51940;52.126;-0.994;2023-02-20T01:12:53;7.90;;;6.70;;
62947;SDS011;51940;52.126;-0.994;2023-02-20T01:15:19;10.50;;;7.00;;
62947;SDS011;51940;52.126;-0.994;2023-02-20T01:17:45;9.40;;;7.50;;
62947;SDS011;51940;52.126;-0.994;2023-02-20T01:20:11;12.70;;;7.90;;
62947;SDS011;51940;52.126;-0.994;2023-02-20T01:22:36;12.60;;;7.50;;
62947;SDS011;51940;52.126;-0.994;2023-02-20T01:25:02;11.10;;;7.70;;
62947;SDS011;51940;52.126;-0.994;2023-02-20T01:27:28;11.50;;;8.10;;
62947;SDS011;51940;52.126;-0.994;2023-02-20T01:29:53;11.50;;;8.10;;
62947;SDS011;51940;52.126;-0.994;2023-02-20T01:32:18;14.30;;;8.60;;
62947;SDS011;51940;52.126;-0.994;2023-02-20T01:34:44;12.90;;;8.10;;
62947;SDS011;51940;52.126;-0.994;2023-02-20T01:37:13;13.10;;;8.70;;
62947;SDS011;51940;52.126;-0.994;2023-02-20T01:39:39;13.70;;;8.70;;
62947;SDS011;51940;52.126;-0.994;2023-02-20T01:42:05;14.80;;;8.70;;
62947;SDS011;51940;52.126;-0.994;2023-02-20T01:44:36;13.90;;;8.70;;
62947;SDS011;51940;52.126;-0.994;2023-02-20T01:47:05;15.90;;;9.10;;
62947;SDS011;51940;52.126;-0.994;2023-02-20T01:49:39;12.80;;;8.30;;
62947;SDS011;51940;52.126;-0.994;2023-02-20T01:52:09;12.80;;;8.40;;
62947;SDS011;51940;52.126;-0.994;2023-02-20T01:54:37;15.70;;;9.10;;
62947;SDS011;51940;52.126;-0.994;2023-02-20T01:57:04;13.30;;;8.60;;
62947;SDS011;51940;52.126;-0.994;2023-02-20T01:59:34;17.00;;;9.10;;
62947;SDS011;51940;52.126;-0.994;2023-02-20T02:02:03;14.50;;;8.80;;
62947;SDS011;51940;52.126;-0.994;2023-02-20T02:04:30;14.50;;;8.60;;
62947;SDS011;51940;52.126;-0.994;2023-02-20T02:06:57;14.50;;;8.00;;
62947;SDS011;51940;52.126;-0.994;2023-02-20T02:09:28;14.10;;;9.00;;
62947;SDS011;51940;52.126;-0.994;2023-02-20T02:12:01;12.40;;;8.40;;
62947;SDS011;51940;52.126;-0.994;2023-02-20T02:14:26;15.10;;;9.20;;
62947;SDS011;51940;52.126;-0.994;2023-02-20T02:19:57;14.20;;;8.90;;
62947;SDS011;51940;52.126;-0.994;2023-02-20T02:33:39;17.60;;;10.40;;
62947;SDS011;51940;52.126;-0.994;2023-02-20T02:52:12;15.70;;;9.80;;
62947;SDS011;51940;52.126;-0.994;2023-02-20T02:54:59;18.40;;;9.90;;
62947;SDS011;51940;52.126;-0.994;2023-02-20T02:57:25;17.30;;;10.00;;
62947;SDS011;51940;52.126;-0.994;2023-02-20T03:00:04;15.30;;;9.40;;
62947;SDS011;51940;52.126;-0.994;2023-02-20T03:02:31;20.30;;;10.10;;
62947;SDS011;51940;52.126;-0.994;2023-02-20T03:04:59;16.80;;;9.80;;
62947;SDS011;51940;52.126;-0.994;2023-02-20T03:07:28;14.20;;;9.60;;
62947;SDS011;51940;52.126;-0.994;2023-02-20T03:09:59;14.90;;;9.20;;
62947;SDS011;51940;52.126;-0.994;2023-02-20T03:12:29;14.80;;;9.70;;
62947;SDS011;51940;52.126;-0.994;2023-02-20T03:14:58;15.00;;;9.50;;
62947;SDS011;51940;52.126;-0.994;2023-02-20T03:17:52;17.10;;;9.50;;
62947;SDS011;51940;52.126;-0.994;2023-02-20T03:20:34;15.10;;;9.30;;
62947;SDS011;51940;52.126;-0.994;2023-02-20T03:23:03;13.70;;;8.50;;
62947;SDS011;51940;52.126;-0.994;2023-02-20T03:25:32;13.10;;;8.40;;
62947;SDS011;51940;52.126;-0.994;2023-02-20T03:30:53;14.40;;;9.30;;
62947;SDS011;51940;52.126;-0.994;2023-02-20T03:33:36;12.60;;;7.90;;
62947;SDS011;51940;52.126;-0.994;2023-02-20T03:36:29;13.10;;;7.60;;
62947;SDS011;51940;52.126;-0.994;2023-02-20T03:39:27;10.00;;;7.10;;
62947;SDS011;51940;52.126;-0.994;2023-02-20T03:42:16;11.70;;;7.50;;
62947;SDS011;51940;52.126;-0.994;2023-02-20T03:45:03;16.50;;;8.20;;
62947;SDS011;51940;52.126;-0.994;2023-02-20T03:47:30;12.80;;;7.70;;
62947;SDS011;51940;52.126;-0.994;2023-02-20T03:49:58;13.40;;;8.60;;
62947;SDS011;51940;52.126;-0.994;2023-02-20T03:52:25;14.30;;;8.50;;
62947;SDS011;51940;52.126;-0.994;2023-02-20T03:54:51;11.00;;;7.50;;
62947;SDS011;51940;52.126;-0.994;2023-02-20T03:57:20;15.00;;;8.90;;
62947;SDS011;51940;52.126;-0.994;2023-02-20T03:59:52;12.60;;;7.90;;
62947;SDS011;51940;52.126;-0.994;2023-02-20T04:02:26;10.70;;;6.60;;
62947;SDS011;51940;52.126;-0.994;2023-02-20T04:04:57;12.80;;;7.10;;
62947;SDS011;51940;52.126;-0.994;2023-02-20T04:07:30;9.60;;;6.50;;
62947;SDS011;51940;52.126;-0.994;2023-02-20T04:10:01;12.50;;;6.90;;
62947;SDS011;51940;52.126;-0.994;2023-02-20T04:12:35;10.50;;;6.40;;
62947;SDS011;51940;52.126;-0.994;2023-02-20T04:15:07;11.90;;;6.40;;
62947;SDS011;51940;52.126;-0.994;2023-02-20T04:17:36;8.80;;;6.00;;
62947;SDS011;51940;52.126;-0.994;2023-02-20T04:20:06;10.50;;;5.50;;
62947;SDS011;51940;52.126;-0.994;2023-02-20T04:22:33;9.80;;;6.10;;
62947;SDS011;51940;52.126;-0.994;2023-02-20T04:27:59;10.20;;;5.80;;
62947;SDS011;51940;52.126;-0.994;2023-02-20T04:30:26;10.30;;;5.90;;
62947;SDS011;51940;52.126;-0.994;2023-02-20T04:32:52;7.90;;;5.40;;
62947;SDS011;51940;52.126;-0.994;2023-02-20T04:35:19;11.40;;;5.80;;
62947;SDS011;51940;52.126;-0.994;2023-02-20T04:37:45;9.20;;;5.60;;
62947;SDS011;51940;52.126;-0.994;2023-02-20T04:40:11;8.60;;;5.80;;
62947;SDS011;51940;52.126;-0.994;2023-02-20T04:42:38;9.20;;;5.30;;
62947;SDS011;51940;52.126;-0.994;2023-02-20T04:45:04;8.80;;;5.50;;
62947;SDS011;51940;52.126;-0.994;2023-02-20T04:47:29;6.60;;;5.00;;
62947;SDS011;51940;52.126;-0.994;2023-02-20T04:49:55;8.80;;;5.30;;
62947;SDS011;51940;52.126;-0.994;2023-02-20T04:52:20;7.60;;;5.40;;
62947;SDS011;51940;52.126;-0.994;2023-02-20T04:54:46;10.00;;;6.00;;
62947;SDS011;51940;52.126;-0.994;2023-02-20T04:57:11;10.50;;;5.70;;
62947;SDS011;51940;52.126;-0.994;2023-02-20T04:59:36;11.30;;;5.60;;
62947;SDS011;51940;52.126;-0.994;2023-02-20T05:02:02;9.40;;;5.80;;
62947;SDS011;51940;52.126;-0.994;2023-02-20T05:04:27;8.30;;;5.60;;
62947;SDS011;51940;52.126;-0.994;2023-02-20T05:06:53;9.50;;;6.00;;
62947;SDS011;51940;52.126;-0.994;2023-02-20T05:09:20;9.00;;;5.50;;
62947;SDS011;51940;52.126;-0.994;2023-02-20T05:11:46;10.30;;;5.80;;
62947;SDS011;51940;52.126;-0.994;2023-02-20T05:14:12;10.40;;;5.80;;
62947;SDS011;51940;52.126;-0.994;2023-02-20T05:16:39;9.80;;;6.70;;
62947;SDS011;51940;52.126;-0.994;2023-02-20T05:19:06;9.30;;;5.90;;
62947;SDS011;51940;52.126;-0.994;2023-02-20T05:21:32;8.50;;;6.10;;
62947;SDS011;51940;52.126;-0.994;2023-02-20T05:24:17;8.50;;;6.20;;
62947;SDS011;51940;52.126;-0.994;2023-02-20T05:26:43;10.20;;;6.10;;
62947;SDS011;51940;52.126;-0.994;2023-02-20T05:29:08;8.20;;;5.70;;
62947;SDS011;51940;52.126;-0.994;2023-02-20T05:31:36;11.00;;;6.90;;
62947;SDS011;51940;52.126;-0.994;2023-02-20T05:34:03;12.10;;;7.60;;
62947;SDS011;51940;52.126;-0.994;2023-02-20T05:36:28;10.10;;;6.80;;
62947;SDS011;51940;52.126;-0.994;2023-02-20T05:38:53;9.80;;;6.60;;
62947;SDS011;51940;52.126;-0.994;2023-02-20T05:41:19;9.60;;;6.70;;
62947;SDS011;51940;52.126;-0.994;2023-02-20T05:43:45;10.30;;;7.10;;
62947;SDS011;51940;52.126;-0.994;2023-02-20T05:46:10;9.50;;;7.00;;
62947;SDS011;51940;52.126;-0.994;2023-02-20T05:48:36;10.20;;;6.90;;
62947;SDS011;51940;52.126;-0.994;2023-02-20T05:51:02;10.30;;;6.90;;
62947;SDS011;51940;52.126;-0.994;2023-02-20T05:53:28;9.00;;;6.90;;
62947;SDS011;51940;52.126;-0.994;2023-02-20T05:55:54;10.10;;;6.50;;
62947;SDS011;51940;52.126;-0.994;2023-02-20T05:58:20;8.30;;;6.20;;
62947;SDS011;51940;52.126;-0.994;2023-02-20T06:00:46;7.80;;;5.90;;
62947;SDS011;51940;52.126;-0.994;2023-02-20T06:03:13;7.20;;;5.80;;
62947;SDS011;51940;52.126;-0.994;2023-02-20T06:05:39;7.90;;;5.60;;
62947;SDS011;51940;52.126;-0.994;2023-02-20T06:08:05;7.10;;;5.10;;
62947;SDS011;51940;52.126;-0.994;2023-02-20T06:10:30;6.60;;;5.60;;
62947;SDS011;51940;52.126;-0.994;2023-02-20T06:12:56;6.90;;;5.10;;
62947;SDS011;51940;52.126;-0.994;2023-02-20T06:15:21;7.20;;;5.10;;
62947;SDS011;51940;52.126;-0.994;2023-02-20T06:17:47;6.70;;;5.00;;
62947;SDS011;51940;52.126;-0.994;2023-02-20T06:20:12;6.10;;;4.60;;
62947;SDS011;51940;52.126;-0.994;2023-02-20T06:22:38;5.40;;;4.50;;
62947;SDS011;51940;52.126;-0.994;2023-02-20T06:25:04;5.50;;;4.80;;
62947;SDS011;51940;52.126;-0.994;2023-02-20T06:27:30;4.60;;;4.10;;
62947;SDS011;51940;52.126;-0.994;2023-02-20T06:29:55;4.50;;;3.80;;
62947;SDS011;51940;52.126;-0.994;2023-02-20T06:32:21;3.80;;;3.40;;
62947;SDS011;51940;52.126;-0.994;2023-02-20T06:34:46;5.60;;;3.50;;
62947;SDS011;51940;52.126;-0.994;2023-02-20T06:37:12;3.80;;;3.30;;
62947;SDS011;51940;52.126;-0.994;2023-02-20T06:39:38;3.50;;;3.10;;
62947;SDS011;51940;52.126;-0.994;2023-02-20T06:42:04;3.10;;;2.80;;
62947;SDS011;51940;52.126;-0.994;2023-02-20T06:44:30;3.30;;;2.90;;
62947;SDS011;51940;52.126;-0.994;2023-02-20T06:46:57;3.30;;;2.80;;
62947;SDS011;51940;52.126;-0.994;2023-02-20T06:49:23;4.00;;;3.30;;
62947;SDS011;51940;52.126;-0.994;2023-02-20T06:51:51;3.20;;;2.90;;
62947;SDS011;51940;52.126;-0.994;2023-02-20T06:54:18;3.80;;;3.20;;
62947;SDS011;51940;52.126;-0.994;2023-02-20T06:56:46;3.10;;;2.80;;
62947;SDS011;51940;52.126;-0.994;2023-02-20T06:59:12;3.50;;;3.00;;
62947;SDS011;51940;52.126;-0.994;2023-02-20T07:01:39;3.10;;;2.80;;
62947;SDS011;51940;52.126;-0.994;2023-02-20T07:04:06;3.00;;;2.70;;
62947;SDS011;51940;52.126;-0.994;2023-02-20T07:06:39;4.50;;;2.90;;
62947;SDS011;51940;52.126;-0.994;2023-02-20T07:09:06;3.20;;;2.90;;
62947;SDS011;51940;52.126;-0.994;2023-02-20T07:11:31;3.20;;;2.90;;
62947;SDS011;51940;52.126;-0.994;2023-02-20T07:13:57;3.70;;;2.90;;
62947;SDS011;51940;52.126;-0.994;2023-02-20T07:16:22;3.10;;;2.80;;
62947;SDS011;51940;52.126;-0.994;2023-02-20T07:18:48;3.40;;;3.10;;
62947;SDS011;51940;52.126;-0.994;2023-02-20T07:21:13;3.00;;;2.70;;
62947;SDS011;51940;52.126;-0.994;2023-02-20T07:23:39;3.50;;;2.70;;
62947;SDS011;51940;52.126;-0.994;2023-02-20T07:26:04;3.10;;;2.80;;
62947;SDS011;51940;52.126;-0.994;2023-02-20T07:28:29;3.40;;;3.10;;
62947;SDS011;51940;52.126;-0.994;2023-02-20T07:30:55;3.30;;;3.00;;
62947;SDS011;51940;52.126;-0.994;2023-02-20T07:33:20;4.10;;;3.70;;
62947;SDS011;51940;52.126;-0.994;2023-02-20T07:35:46;2.90;;;2.60;;
62947;SDS011;51940;52.126;-0.994;2023-02-20T07:38:11;3.40;;;3.10;;
62947;SDS011;51940;52.126;-0.994;2023-02-20T07:40:37;3.60;;;3.10;;
62947;SDS011;51940;52.126;-0.994;2023-02-20T07:43:03;2.90;;;2.70;;
62947;SDS011;51940;52.126;-0.994;2023-02-20T07:45:28;4.10;;;3.10;;
62947;SDS011;51940;52.126;-0.994;2023-02-20T07:47:54;4.90;;;3.40;;
62947;SDS011;51940;52.126;-0.994;2023-02-20T07:50:19;3.60;;;3.30;;
62947;SDS011;51940;52.126;-0.994;2023-02-20T07:52:45;3.80;;;3.40;;
62947;SDS011;51940;52.126;-0.994;2023-02-20T07:55:17;5.50;;;3.90;;
62947;SDS011;51940;52.126;-0.994;2023-02-20T07:57:45;4.60;;;3.90;;
62947;SDS011;51940;52.126;-0.994;2023-02-20T08:00:15;4.90;;;4.00;;
62947;SDS011;51940;52.126;-0.994;2023-02-20T08:02:42;4.70;;;3.60;;
62947;SDS011;51940;52.126;-0.994;2023-02-20T08:05:07;4.60;;;3.90;;
62947;SDS011;51940;52.126;-0.994;2023-02-20T08:07:33;4.20;;;3.70;;
62947;SDS011;51940;52.126;-0.994;2023-02-20T08:09:59;4.80;;;3.90;;
62947;SDS011;51940;52.126;-0.994;2023-02-20T08:12:24;4.40;;;3.70;;
62947;SDS011;51940;52.126;-0.994;2023-02-20T08:14:50;4.70;;;4.00;;
62947;SDS011;51940;52.126;-0.994;2023-02-20T08:17:16;4.70;;;3.70;;
62947;SDS011;51940;52.126;-0.994;2023-02-20T08:19:42;5.00;;;4.20;;
62947;SDS011;51940;52.126;-0.994;2023-02-20T08:22:07;4.30;;;3.90;;
62947;SDS011;51940;52.126;-0.994;2023-02-20T08:24:33;5.70;;;3.90;;
62947;SDS011;51940;52.126;-0.994;2023-02-20T08:26:58;5.40;;;3.80;;
62947;SDS011;51940;52.126;-0.994;2023-02-20T08:29:23;4.40;;;4.00;;
62947;SDS011;51940;52.126;-0.994;2023-02-20T08:31:49;4.30;;;3.80;;
62947;SDS011;51940;52.126;-0.994;2023-02-20T08:34:14;4.80;;;4.30;;
62947;SDS011;51940;52.126;-0.994;2023-02-20T08:36:40;5.40;;;4.80;;
62947;SDS011;51940;52.126;-0.994;2023-02-20T08:39:05;5.40;;;3.70;;
62947;SDS011;51940;52.126;-0.994;2023-02-20T08:41:31;4.00;;;3.60;;
62947;SDS011;51940;52.126;-0.994;2023-02-20T08:43:56;4.70;;;3.20;;
62947;SDS011;51940;52.126;-0.994;2023-02-20T08:46:22;4.20;;;3.50;;
62947;SDS011;51940;52.126;-0.994;2023-02-20T08:48:47;4.10;;;3.70;;
62947;SDS011;51940;52.126;-0.994;2023-02-20T08:51:16;4.50;;;3.30;;
62947;SDS011;51940;52.126;-0.994;2023-02-20T08:53:43;3.90;;;3.50;;
62947;SDS011;51940;52.126;-0.994;2023-02-20T08:56:08;3.50;;;3.20;;
62947;SDS011;51940;52.126;-0.994;2023-02-20T08:58:34;3.40;;;3.10;;
62947;SDS011;51940;52.126;-0.994;2023-02-20T09:00:59;3.60;;;3.30;;
62947;SDS011;51940;52.126;-0.994;2023-02-20T09:03:25;3.70;;;3.20;;
62947;SDS011;51940;52.126;-0.994;2023-02-20T09:05:51;3.50;;;3.20;;
62947;SDS011;51940;52.126;-0.994;2023-02-20T09:08:16;3.30;;;3.00;;
62947;SDS011;51940;52.126;-0.994;2023-02-20T09:10:42;3.70;;;3.40;;
62947;SDS011;51940;52.126;-0.994;2023-02-20T09:13:08;3.30;;;3.00;;
62947;SDS011;51940;52.126;-0.994;2023-02-20T09:15:33;3.30;;;2.90;;
62947;SDS011;51940;52.126;-0.994;2023-02-20T09:18:03;3.20;;;3.00;;
62947;SDS011;51940;52.126;-0.994;2023-02-20T09:20:30;2.90;;;2.60;;
62947;SDS011;51940;52.126;-0.994;2023-02-20T09:22:57;4.60;;;2.50;;
62947;SDS011;51940;52.126;-0.994;2023-02-20T09:25:24;3.00;;;2.80;;
62947;SDS011;51940;52.126;-0.994;2023-02-20T09:27:50;2.80;;;2.50;;
62947;SDS011;51940;52.126;-0.994;2023-02-20T09:30:17;2.30;;;2.10;;
62947;SDS011;51940;52.126;-0.994;2023-02-20T09:32:48;3.00;;;2.70;;
62947;SDS011;51940;52.126;-0.994;2023-02-20T09:35:27;2.60;;;2.30;;
62947;SDS011;51940;52.126;-0.994;2023-02-20T09:37:54;2.20;;;2.00;;
62947;SDS011;51940;52.126;-0.994;2023-02-20T09:40:20;2.30;;;2.10;;
62947;SDS011;51940;52.126;-0.994;2023-02-20T09:42:53;2.40;;;2.20;;
62947;SDS011;51940;52.126;-0.994;2023-02-20T09:45:37;2.20;;;2.00;;
62947;SDS011;51940;52.126;-0.994;2023-02-20T09:51:00;2.10;;;1.90;;
62947;SDS011;51940;52.126;-0.994;2023-02-20T09:56:16;2.00;;;1.80;;
62947;SDS011;51940;52.126;-0.994;2023-02-20T09:59:02;2.00;;;1.90;;
62947;SDS011;51940;52.126;-0.994;2023-02-20T10:01:31;4.50;;;2.10;;
62947;SDS011;51940;52.126;-0.994;2023-02-20T10:04:01;2.10;;;2.00;;
62947;SDS011;51940;52.126;-0.994;2023-02-20T10:06:34;2.60;;;1.90;;
62947;SDS011;51940;52.126;-0.994;2023-02-20T10:08:59;1.80;;;1.70;;
62947;SDS011;51940;52.126;-0.994;2023-02-20T10:17:12;1.70;;;1.60;;
62947;SDS011;51940;52.126;-0.994;2023-02-20T10:20:08;1.80;;;1.70;;
62947;SDS011;51940;52.126;-0.994;2023-02-20T10:25:36;2.00;;;1.50;;
62947;SDS011;51940;52.126;-0.994;2023-02-20T10:28:13;2.00;;;1.60;;
62947;SDS011;51940;52.126;-0.994;2023-02-20T10:31:05;1.60;;;1.50;;
62947;SDS011;51940;52.126;-0.994;2023-02-20T10:33:51;1.70;;;1.60;;
62947;SDS011;51940;52.126;-0.994;2023-02-20T10:36:24;2.00;;;1.60;;
62947;SDS011;51940;52.126;-0.994;2023-02-20T10:39:14;1.50;;;1.30;;
62947;SDS011;51940;52.126;-0.994;2023-02-20T10:41:42;1.20;;;1.20;;
62947;SDS011;51940;52.126;-0.994;2023-02-20T10:46:48;1.60;;;1.20;;
62947;SDS011;51940;52.126;-0.994;2023-02-20T10:49:48;1.00;;;1.00;;
62947;SDS011;51940;52.126;-0.994;2023-02-20T10:52:12;1.20;;;1.10;;
62947;SDS011;51940;52.126;-0.994;2023-02-20T10:54:42;1.20;;;1.10;;
62947;SDS011;51940;52.126;-0.994;2023-02-20T10:57:17;1.30;;;1.20;;
62947;SDS011;51940;52.126;-0.994;2023-02-20T10:59:54;1.30;;;1.20;;
62947;SDS011;51940;52.126;-0.994;2023-02-20T11:02:29;1.20;;;1.10;;
62947;SDS011;51940;52.126;-0.994;2023-02-20T11:05:06;1.30;;;1.20;;
62947;SDS011;51940;52.126;-0.994;2023-02-20T11:07:35;1.30;;;1.10;;
62947;SDS011;51940;52.126;-0.994;2023-02-20T11:10:00;1.20;;;1.10;;
62947;SDS011;51940;52.126;-0.994;2023-02-20T11:12:28;1.30;;;1.10;;
62947;SDS011;51940;52.126;-0.994;2023-02-20T11:14:55;1.10;;;1.10;;
62947;SDS011;51940;52.126;-0.994;2023-02-20T11:17:24;1.20;;;1.10;;
62947;SDS011;51940;52.126;-0.994;2023-02-20T11:19:53;3.60;;;1.30;;
62947;SDS011;51940;52.126;-0.994;2023-02-20T11:25:28;1.20;;;0.90;;
62947;SDS011;51940;52.126;-0.994;2023-02-20T11:27:59;0.90;;;0.90;;
62947;SDS011;51940;52.126;-0.994;2023-02-20T11:30:38;0.90;;;0.90;;
62947;SDS011;51940;52.126;-0.994;2023-02-20T11:33:20;1.00;;;1.00;;
62947;SDS011;51940;52.126;-0.994;2023-02-20T11:35:57;1.00;;;1.00;;
62947;SDS011;51940;52.126;-0.994;2023-02-20T11:38:34;1.10;;;1.00;;
62947;SDS011;51940;52.126;-0.994;2023-02-20T11:41:04;1.20;;;1.10;;
62947;SDS011;51940;52.126;-0.994;2023-02-20T11:43:43;1.20;;;1.10;;
62947;SDS011;51940;52.126;-0.994;2023-02-20T11:46:12;1.40;;;1.20;;
62947;SDS011;51940;52.126;-0.994;2023-02-20T11:49:08;2.00;;;1.60;;
62947;SDS011;51940;52.126;-0.994;2023-02-20T11:51:52;1.00;;;1.00;;
62947;SDS011;51940;52.126;-0.994;2023-02-20T11:54:31;2.70;;;1.10;;
62947;SDS011;51940;52.126;-0.994;2023-02-20T12:04:59;1.20;;;0.90;;
62947;SDS011;51940;52.126;-0.994;2023-02-20T12:12:49;1.00;;;1.00;;
62947;SDS011;51940;52.126;-0.994;2023-02-20T12:15:17;1.00;;;0.90;;
62947;SDS011;51940;52.126;-0.994;2023-02-20T12:20:28;1.20;;;1.10;;
62947;SDS011;51940;52.126;-0.994;2023-02-20T12:25:57;1.20;;;1.10;;
62947;SDS011;51940;52.126;-0.994;2023-02-20T12:31:13;1.40;;;1.30;;
62947;SDS011;51940;52.126;-0.994;2023-02-20T12:36:47;1.60;;;1.10;;
62947;SDS011;51940;52.126;-0.994;2023-02-20T12:45:33;1.40;;;1.30;;
62947;SDS011;51940;52.126;-0.994;2023-02-20T12:48:10;1.80;;;1.60;;
62947;SDS011;51940;52.126;-0.994;2023-02-20T12:50:58;4.20;;;1.60;;
62947;SDS011;51940;52.126;-0.994;2023-02-20T12:53:35;3.70;;;2.00;;
62947;SDS011;51940;52.126;-0.994;2023-02-20T13:01:27;2.80;;;1.60;;
62947;SDS011;51940;52.126;-0.994;2023-02-20T13:06:24;1.70;;;1.60;;
62947;SDS011;51940;52.126;-0.994;2023-02-20T13:08:58;2.40;;;1.70;;
62947;SDS011;51940;52.126;-0.994;2023-02-20T13:11:44;3.60;;;1.70;;
62947;SDS011;51940;52.126;-0.994;2023-02-20T13:16:59;1.80;;;1.50;;
62947;SDS011;51940;52.126;-0.994;2023-02-20T13:22:14;2.00;;;1.70;;
62947;SDS011;51940;52.126;-0.994;2023-02-20T13:24:40;3.40;;;1.80;;
62947;SDS011;51940;52.126;-0.994;2023-02-20T13:27:07;3.30;;;1.90;;
62947;SDS011;51940;52.126;-0.994;2023-02-20T13:30:17;1.60;;;1.50;;
62947;SDS011;51940;52.126;-0.994;2023-02-20T13:32:25;2.70;;;1.50;;
62947;SDS011;51940;52.126;-0.994;2023-02-20T13:38:11;2.10;;;1.70;;
62947;SDS011;51940;52.126;-0.994;2023-02-20T13:40:43;2.00;;;1.70;;
62947;SDS011;51940;52.126;-0.994;2023-02-20T13:48:47;1.90;;;1.70;;
62947;SDS011;51940;52.126;-0.994;2023-02-20T13:56:15;1.90;;;1.70;;
62947;SDS011;51940;52.126;-0.994;2023-02-20T13:58:53;2.00;;;1.90;;
62947;SDS011;51940;52.126;-0.994;2023-02-20T14:01:22;2.20;;;1.90;;
62947;SDS011;51940;52.126;-0.994;2023-02-20T14:04:01;2.40;;;2.20;;
62947;SDS011;51940;52.126;-0.994;2023-02-20T14:06:28;1.90;;;1.70;;
62947;SDS011;51940;52.126;-0.994;2023-02-20T14:09:07;3.40;;;1.90;;
62947;SDS011;51940;52.126;-0.994;2023-02-20T14:11:35;1.90;;;1.80;;
62947;SDS011;51940;52.126;-0.994;2023-02-20T14:14:05;2.10;;;1.70;;
62947;SDS011;51940;52.126;-0.994;2023-02-20T14:16:35;1.80;;;1.70;;
62947;SDS011;51940;52.126;-0.994;2023-02-20T14:19:06;1.80;;;1.60;;
62947;SDS011;51940;52.126;-0.994;2023-02-20T14:21:38;2.00;;;1.80;;
62947;SDS011;51940;52.126;-0.994;2023-02-20T14:24:15;2.10;;;1.90;;
62947;SDS011;51940;52.126;-0.994;2023-02-20T14:26:43;2.80;;;2.00;;
62947;SDS011;51940;52.126;-0.994;2023-02-20T14:29:29;2.40;;;2.00;;
62947;SDS011;51940;52.126;-0.994;2023-02-20T14:31:58;3.50;;;2.80;;
62947;SDS011;51940;52.126;-0.994;2023-02-20T14:37:25;2.30;;;2.10;;
62947;SDS011;51940;52.126;-0.994;2023-02-20T14:42:48;4.10;;;3.60;;
62947;SDS011;51940;52.126;-0.994;2023-02-20T14:45:15;5.40;;;4.00;;
62947;SDS011;51940;52.126;-0.994;2023-02-20T14:47:50;4.40;;;4.00;;
62947;SDS011;51940;52.126;-0.994;2023-02-20T14:50:18;4.00;;;3.60;;
62947;SDS011;51940;52.126;-0.994;2023-02-20T14:52:59;4.80;;;3.60;;
62947;SDS011;51940;52.126;-0.994;2023-02-20T14:55:47;4.10;;;3.40;;
62947;SDS011;51940;52.126;-0.994;2023-02-20T14:58:16;3.80;;;3.50;;
62947;SDS011;51940;52.126;-0.994;2023-02-20T15:00:44;3.50;;;3.20;;
62947;SDS011;51940;52.126;-0.994;2023-02-20T15:03:22;3.80;;;3.50;;
62947;SDS011;51940;52.126;-0.994;2023-02-20T15:05:50;3.90;;;3.40;;
62947;SDS011;51940;52.126;-0.994;2023-02-20T15:10:49;6.40;;;3.30;;
62947;SDS011;51940;52.126;-0.994;2023-02-20T15:13:28;3.00;;;2.80;;
62947;SDS011;51940;52.126;-0.994;2023-02-20T15:21:11;2.90;;;2.50;;
62947;SDS011;51940;52.126;-0.994;2023-02-20T15:23:46;2.70;;;2.50;;
62947;SDS011;51940;52.126;-0.994;2023-02-20T15:26:28;3.50;;;2.40;;
62947;SDS011;51940;52.126;-0.994;2023-02-20T15:31:54;2.70;;;2.50;;
62947;SDS011;51940;52.126;-0.994;2023-02-20T15:34:29;2.80;;;2.50;;
62947;SDS011;51940;52.126;-0.994;2023-02-20T15:36:58;3.00;;;2.70;;
62947;SDS011;51940;52.126;-0.994;2023-02-20T15:39:24;3.20;;;2.90;;
62947;SDS011;51940;52.126;-0.994;2023-02-20T15:41:50;3.30;;;3.00;;
62947;SDS011;51940;52.126;-0.994;2023-02-20T15:44:17;3.90;;;3.50;;
62947;SDS011;51940;52.126;-0.994;2023-02-20T15:46:43;3.60;;;3.30;;
62947;SDS011;51940;52.126;-0.994;2023-02-20T15:49:08;3.30;;;3.00;;
62947;SDS011;51940;52.126;-0.994;2023-02-20T15:51:35;3.60;;;3.30;;
62947;SDS011;51940;52.126;-0.994;2023-02-20T15:54:03;3.30;;;3.00;;
62947;SDS011;51940;52.126;-0.994;2023-02-20T15:56:31;3.90;;;3.40;;
62947;SDS011;51940;52.126;-0.994;2023-02-20T15:59:05;4.10;;;3.20;;
62947;SDS011;51940;52.126;-0.994;2023-02-20T16:01:33;3.40;;;2.90;;
62947;SDS011;51940;52.126;-0.994;2023-02-20T16:03:58;3.40;;;2.90;;
62947;SDS011;51940;52.126;-0.994;2023-02-20T16:06:24;3.10;;;2.90;;
62947;SDS011;51940;52.126;-0.994;2023-02-20T16:08:49;3.10;;;2.80;;
62947;SDS011;51940;52.126;-0.994;2023-02-20T16:11:20;3.50;;;3.10;;
62947;SDS011;51940;52.126;-0.994;2023-02-20T16:13:54;3.40;;;3.10;;
62947;SDS011;51940;52.126;-0.994;2023-02-20T16:16:22;3.00;;;2.70;;
62947;SDS011;51940;52.126;-0.994;2023-02-20T16:18:59;3.10;;;2.90;;
62947;SDS011;51940;52.126;-0.994;2023-02-20T16:21:25;5.30;;;3.10;;
62947;SDS011;51940;52.126;-0.994;2023-02-20T16:23:51;3.00;;;2.80;;
62947;SDS011;51940;52.126;-0.994;2023-02-20T16:26:20;3.50;;;3.10;;
62947;SDS011;51940;52.126;-0.994;2023-02-20T16:28:57;3.90;;;3.10;;
62947;SDS011;51940;52.126;-0.994;2023-02-20T16:34:25;4.00;;;3.60;;
62947;SDS011;51940;52.126;-0.994;2023-02-20T16:36:52;3.40;;;3.00;;
62947;SDS011;51940;52.126;-0.994;2023-02-20T16:39:18;2.90;;;2.70;;
62947;SDS011;51940;52.126;-0.994;2023-02-20T16:41:47;3.30;;;3.10;;
62947;SDS011;51940;52.126;-0.994;2023-02-20T16:47:03;3.10;;;2.90;;
62947;SDS011;51940;52.126;-0.994;2023-02-20T16:49:28;3.20;;;2.90;;
62947;SDS011;51940;52.126;-0.994;2023-02-20T16:52:01;4.90;;;2.90;;
62947;SDS011;51940;52.126;-0.994;2023-02-20T16:54:33;3.40;;;2.90;;
62947;SDS011;51940;52.126;-0.994;2023-02-20T16:56:59;2.90;;;2.70;;
62947;SDS011;51940;52.126;-0.994;2023-02-20T16:59:25;3.50;;;3.20;;
62947;SDS011;51940;52.126;-0.994;2023-02-20T17:01:50;3.70;;;2.90;;